Terminal Aerodrome Forecast
Issued by NWS

Home | Current Version | Previous Version | Text Only | Print | Product List | Glossary On
Versions: 1 2 3 4 5 6 7 8 9 10 11 12 13 14 15 16 17 18 19 20 21 22 23 24
389
FTUS43 KDLH 290811 AAA
TAFBRD
TAF AMD
KBRD 290811Z 2908/3006 27005KT P6SM VCSH SCT007 OVC025
      TEMPO 2908/2912 3SM -DZ BR BKN007
     FM291300 29006KT P6SM OVC020
     FM291500 28010KT P6SM BKN025
     FM291900 28010G19KT P6SM VCSH BKN050
     FM300100 28004KT P6SM FEW050=

USA.gov is the U.S. government's official web portal to all federal, state and local government web resources and services.